sensor_id;sensor_type;location;lat;lon;timestamp;pressure;altitude;pressure_sealevel;temperature;humidity
80585;BME280;70137;56.482;9.154;2024-02-28T00:02:17;101651.00;;;2.10;94.94
80585;BME280;70137;56.482;9.154;2024-02-28T00:04:43;101651.00;;;2.10;95.00
80585;BME280;70137;56.482;9.154;2024-02-28T00:07:08;101653.63;;;2.08;95.47
80585;BME280;70137;56.482;9.154;2024-02-28T00:09:33;101650.16;;;2.09;95.11
80585;BME280;70137;56.482;9.154;2024-02-28T00:11:59;101654.47;;;2.09;95.33
80585;BME280;70137;56.482;9.154;2024-02-28T00:14:24;101653.63;;;2.08;95.27
80585;BME280;70137;56.482;9.154;2024-02-28T00:16:49;101657.94;;;2.08;95.85
80585;BME280;70137;56.482;9.154;2024-02-28T00:19:15;101650.25;;;2.08;95.33
80585;BME280;70137;56.482;9.154;2024-02-28T00:21:42;101646.78;;;2.09;95.43
80585;BME280;70137;56.482;9.154;2024-02-28T00:24:08;101648.53;;;2.08;95.46
80585;BME280;70137;56.482;9.154;2024-02-28T00:26:34;101645.88;;;2.10;95.50
80585;BME280;70137;56.482;9.154;2024-02-28T00:28:59;101639.13;;;2.09;95.44
80585;BME280;70137;56.482;9.154;2024-02-28T00:31:25;101640.94;;;2.07;96.00
80585;BME280;70137;56.482;9.154;2024-02-28T00:33:50;101638.38;;;2.07;95.66
80585;BME280;70137;56.482;9.154;2024-02-28T00:36:16;101642.75;;;2.05;95.41
80585;BME280;70137;56.482;9.154;2024-02-28T00:38:42;101642.75;;;2.05;95.63
80585;BME280;70137;56.482;9.154;2024-02-28T00:41:07;101636.81;;;2.04;95.98
80585;BME280;70137;56.482;9.154;2024-02-28T00:43:32;101629.97;;;2.05;96.35
80585;BME280;70137;56.482;9.154;2024-02-28T00:45:58;101630.72;;;2.07;95.98
80585;BME280;70137;56.482;9.154;2024-02-28T00:48:24;101625.59;;;2.07;95.83
80585;BME280;70137;56.482;9.154;2024-02-28T00:50:49;101634.28;;;2.04;95.90
80585;BME280;70137;56.482;9.154;2024-02-28T00:53:15;101627.41;;;2.05;96.06
80585;BME280;70137;56.482;9.154;2024-02-28T00:55:40;101630.72;;;2.07;95.88
80585;BME280;70137;56.482;9.154;2024-02-28T00:58:05;101632.34;;;2.08;96.08
80585;BME280;70137;56.482;9.154;2024-02-28T01:00:31;101637.56;;;2.06;96.35
80585;BME280;70137;56.482;9.154;2024-02-28T01:02:56;101633.19;;;2.08;96.08
80585;BME280;70137;56.482;9.154;2024-02-28T01:05:21;101634.09;;;2.07;96.01
80585;BME280;70137;56.482;9.154;2024-02-28T01:07:47;101642.50;;;2.09;95.96
80585;BME280;70137;56.482;9.154;2024-02-28T01:10:12;101638.28;;;2.08;95.70
80585;BME280;70137;56.482;9.154;2024-02-28T01:12:38;101637.47;;;2.08;95.92
80585;BME280;70137;56.482;9.154;2024-02-28T01:15:04;101640.03;;;2.08;95.85
80585;BME280;70137;56.482;9.154;2024-02-28T01:17:29;101636.75;;;2.06;96.01
80585;BME280;70137;56.482;9.154;2024-02-28T01:19:55;101646.06;;;2.07;97.01
80585;BME280;70137;56.482;9.154;2024-02-28T01:22:21;101635.25;;;2.01;97.14
80585;BME280;70137;56.482;9.154;2024-02-28T01:24:46;101639.63;;;1.99;97.26
80585;BME280;70137;56.482;9.154;2024-02-28T01:27:12;101631.22;;;1.97;97.97
80585;BME280;70137;56.482;9.154;2024-02-28T01:29:37;101630.31;;;1.98;98.28
80585;BME280;70137;56.482;9.154;2024-02-28T01:32:03;101614.25;;;1.96;98.70
80585;BME280;70137;56.482;9.154;2024-02-28T01:34:28;101626.09;;;1.97;99.16
80585;BME280;70137;56.482;9.154;2024-02-28T01:36:53;101626.28;;;1.94;99.17
80585;BME280;70137;56.482;9.154;2024-02-28T01:39:19;101625.53;;;1.92;99.55
80585;BME280;70137;56.482;9.154;2024-02-28T01:41:54;101623.25;;;1.88;99.82
80585;BME280;70137;56.482;9.154;2024-02-28T01:44:20;101628.59;;;1.83;100.00
80585;BME280;70137;56.482;9.154;2024-02-28T01:46:45;101620.19;;;1.81;100.00
80585;BME280;70137;56.482;9.154;2024-02-28T01:49:11;101622.84;;;1.80;100.00
80585;BME280;70137;56.482;9.154;2024-02-28T01:51:37;101618.53;;;1.80;100.00
80585;BME280;70137;56.482;9.154;2024-02-28T01:54:03;101618.72;;;1.77;100.00
80585;BME280;70137;56.482;9.154;2024-02-28T01:56:29;101610.31;;;1.75;100.00
80585;BME280;70137;56.482;9.154;2024-02-28T01:58:55;101610.47;;;1.72;100.00
80585;BME280;70137;56.482;9.154;2024-02-28T02:01:21;101610.66;;;1.69;100.00
80585;BME280;70137;56.482;9.154;2024-02-28T02:03:47;101609.19;;;1.65;100.00
80585;BME280;70137;56.482;9.154;2024-02-28T02:06:12;101601.56;;;1.63;100.00
80585;BME280;70137;56.482;9.154;2024-02-28T02:08:38;101608.41;;;1.63;100.00
80585;BME280;70137;56.482;9.154;2024-02-28T02:11:05;101605.31;;;1.58;100.00
80585;BME280;70137;56.482;9.154;2024-02-28T02:13:31;101599.63;;;1.53;100.00
80585;BME280;70137;56.482;9.154;2024-02-28T02:15:56;101600.09;;;1.43;100.00
80585;BME280;70137;56.482;9.154;2024-02-28T02:18:22;101597.66;;;1.42;100.00
80585;BME280;70137;56.482;9.154;2024-02-28T02:20:50;101588.41;;;1.39;100.00
80585;BME280;70137;56.482;9.154;2024-02-28T02:23:15;101590.34;;;1.36;100.00
80585;BME280;70137;56.482;9.154;2024-02-28T02:25:48;101589.56;;;1.34;100.00
80585;BME280;70137;56.482;9.154;2024-02-28T02:28:13;101590.56;;;1.31;100.00
80585;BME280;70137;56.482;9.154;2024-02-28T02:30:40;101579.59;;;1.29;100.00
80585;BME280;70137;56.482;9.154;2024-02-28T02:33:07;101577.97;;;1.28;100.00
80585;BME280;70137;56.482;9.154;2024-02-28T02:35:33;101569.47;;;1.28;100.00
80585;BME280;70137;56.482;9.154;2024-02-28T02:37:59;101567.00;;;1.26;100.00
80585;BME280;70137;56.482;9.154;2024-02-28T02:40:24;101569.63;;;1.25;100.00
80585;BME280;70137;56.482;9.154;2024-02-28T02:42:50;101566.19;;;1.26;100.00
80585;BME280;70137;56.482;9.154;2024-02-28T02:45:16;101567.00;;;1.26;100.00
80585;BME280;70137;56.482;9.154;2024-02-28T02:47:41;101563.38;;;1.30;100.00
80585;BME280;70137;56.482;9.154;2024-02-28T02:50:09;101567.56;;;1.31;100.00
80585;BME280;70137;56.482;9.154;2024-02-28T02:52:34;101565.66;;;1.35;100.00
80585;BME280;70137;56.482;9.154;2024-02-28T02:54:59;101569.94;;;1.34;100.00
80585;BME280;70137;56.482;9.154;2024-02-28T02:57:25;101559.72;;;1.34;100.00
80585;BME280;70137;56.482;9.154;2024-02-28T02:59:50;101568.97;;;1.37;100.00
80585;BME280;70137;56.482;9.154;2024-02-28T03:02:15;101571.34;;;1.40;100.00
80585;BME280;70137;56.482;9.154;2024-02-28T03:04:41;101563.59;;;1.41;100.00
80585;BME280;70137;56.482;9.154;2024-02-28T03:07:06;101552.66;;;1.39;100.00
80585;BME280;70137;56.482;9.154;2024-02-28T03:09:31;101563.59;;;1.41;100.00
80585;BME280;70137;56.482;9.154;2024-02-28T03:11:57;101553.31;;;1.43;100.00
80585;BME280;70137;56.482;9.154;2024-02-28T03:14:22;101553.16;;;1.46;100.00
80585;BME280;70137;56.482;9.154;2024-02-28T03:16:50;101557.34;;;1.47;100.00
80585;BME280;70137;56.482;9.154;2024-02-28T03:19:16;101554.78;;;1.47;100.00
80585;BME280;70137;56.482;9.154;2024-02-28T03:21:41;101549.69;;;1.47;100.00
80585;BME280;70137;56.482;9.154;2024-02-28T03:24:07;101553.78;;;1.50;100.00
80585;BME280;70137;56.482;9.154;2024-02-28T03:26:32;101552.16;;;1.49;100.00
80585;BME280;70137;56.482;9.154;2024-02-28T03:28:58;101545.41;;;1.48;100.00
80585;BME280;70137;56.482;9.154;2024-02-28T03:31:24;101533.44;;;1.48;100.00
80585;BME280;70137;56.482;9.154;2024-02-28T03:33:49;101539.28;;;1.50;100.00
80585;BME280;70137;56.482;9.154;2024-02-28T03:36:15;101535.91;;;1.50;100.00
80585;BME280;70137;56.482;9.154;2024-02-28T03:38:40;101535.09;;;1.49;100.00
80585;BME280;70137;56.482;9.154;2024-02-28T03:41:06;101528.06;;;1.53;100.00
80585;BME280;70137;56.482;9.154;2024-02-28T03:43:31;101527.16;;;1.54;100.00
80585;BME280;70137;56.482;9.154;2024-02-28T03:45:57;101524.59;;;1.54;100.00
80585;BME280;70137;56.482;9.154;2024-02-28T03:48:22;101522.94;;;1.53;100.00
80585;BME280;70137;56.482;9.154;2024-02-28T03:50:47;101512.72;;;1.53;100.00
80585;BME280;70137;56.482;9.154;2024-02-28T03:53:13;101525.34;;;1.56;100.00
80585;BME280;70137;56.482;9.154;2024-02-28T03:55:38;101526.28;;;1.55;100.00
80585;BME280;70137;56.482;9.154;2024-02-28T03:58:04;101525.28;;;1.57;100.00
80585;BME280;70137;56.482;9.154;2024-02-28T04:00:32;101522.63;;;1.59;100.00
80585;BME280;70137;56.482;9.154;2024-02-28T04:02:57;101523.44;;;1.59;100.00
80585;BME280;70137;56.482;9.154;2024-02-28T04:05:22;101526.72;;;1.61;100.00
80585;BME280;70137;56.482;9.154;2024-02-28T04:07:48;101525.91;;;1.61;100.00
80585;BME280;70137;56.482;9.154;2024-02-28T04:10:13;101529.19;;;1.63;100.00
80585;BME280;70137;56.482;9.154;2024-02-28T04:12:42;101530.94;;;1.62;100.00
80585;BME280;70137;56.482;9.154;2024-02-28T04:15:08;101526.72;;;1.61;100.00
80585;BME280;70137;56.482;9.154;2024-02-28T04:17:33;101525.72;;;1.64;100.00
80585;BME280;70137;56.482;9.154;2024-02-28T04:19:59;101525.72;;;1.64;100.00
80585;BME280;70137;56.482;9.154;2024-02-28T04:22:27;101523.94;;;1.66;100.00
80585;BME280;70137;56.482;9.154;2024-02-28T04:24:52;101516.09;;;1.69;100.00
80585;BME280;70137;56.482;9.154;2024-02-28T04:27:17;101515.16;;;1.70;100.00
80585;BME280;70137;56.482;9.154;2024-02-28T04:29:43;101517.81;;;1.68;100.00
80585;BME280;70137;56.482;9.154;2024-02-28T04:32:08;101512.72;;;1.68;100.00
80585;BME280;70137;56.482;9.154;2024-02-28T04:34:36;101515.16;;;1.70;100.00
80585;BME280;70137;56.482;9.154;2024-02-28T04:37:01;101509.22;;;1.69;100.00
80585;BME280;70137;56.482;9.154;2024-02-28T04:39:27;101510.06;;;1.70;100.00
80585;BME280;70137;56.482;9.154;2024-02-28T04:41:52;101513.34;;;1.72;100.00
80585;BME280;70137;56.482;9.154;2024-02-28T04:44:17;101509.88;;;1.73;100.00
80585;BME280;70137;56.482;9.154;2024-02-28T04:46:43;101508.06;;;1.75;100.00
80585;BME280;70137;56.482;9.154;2024-02-28T04:49:08;101510.63;;;1.75;100.00
80585;BME280;70137;56.482;9.154;2024-02-28T04:51:34;101513.81;;;1.79;100.00
80585;BME280;70137;56.482;9.154;2024-02-28T04:53:59;101514.66;;;1.79;100.00
80585;BME280;70137;56.482;9.154;2024-02-28T04:56:25;101518.75;;;1.82;100.00
80585;BME280;70137;56.482;9.154;2024-02-28T04:58:50;101517.94;;;1.81;100.00
80585;BME280;70137;56.482;9.154;2024-02-28T05:01:16;101509.34;;;1.82;100.00
80585;BME280;70137;56.482;9.154;2024-02-28T05:03:41;101509.19;;;1.85;100.00
80585;BME280;70137;56.482;9.154;2024-02-28T05:06:06;101519.25;;;1.88;100.00
80585;BME280;70137;56.482;9.154;2024-02-28T05:08:32;101513.31;;;1.88;100.00
80585;BME280;70137;56.482;9.154;2024-02-28T05:10:57;101512.38;;;1.89;100.00
80585;BME280;70137;56.482;9.154;2024-02-28T05:13:23;101519.06;;;1.91;100.00
80585;BME280;70137;56.482;9.154;2024-02-28T05:15:49;101515.59;;;1.92;100.00
80585;BME280;70137;56.482;9.154;2024-02-28T05:18:16;101510.47;;;1.92;100.00
80585;BME280;70137;56.482;9.154;2024-02-28T05:20:41;101507.03;;;1.93;100.00
80585;BME280;70137;56.482;9.154;2024-02-28T05:23:07;101508.66;;;1.94;100.00
80585;BME280;70137;56.482;9.154;2024-02-28T05:25:32;101504.38;;;1.95;100.00
80585;BME280;70137;56.482;9.154;2024-02-28T05:27:57;101519.63;;;1.96;100.00
80585;BME280;70137;56.482;9.154;2024-02-28T05:30:23;101506.84;;;1.96;100.00
80585;BME280;70137;56.482;9.154;2024-02-28T05:32:48;101509.94;;;2.01;100.00
80585;BME280;70137;56.482;9.154;2024-02-28T05:35:13;101518.44;;;2.02;100.00
80585;BME280;70137;56.482;9.154;2024-02-28T05:37:39;101503.91;;;2.03;100.00
80585;BME280;70137;56.482;9.154;2024-02-28T05:40:07;101497.00;;;2.05;100.00
80585;BME280;70137;56.482;9.154;2024-02-28T05:42:32;101496.06;;;2.06;100.00
80585;BME280;70137;56.482;9.154;2024-02-28T05:44:59;101503.75;;;2.06;100.00
80585;BME280;70137;56.482;9.154;2024-02-28T05:47:24;101502.84;;;2.07;100.00
80585;BME280;70137;56.482;9.154;2024-02-28T05:49:50;101509.59;;;2.08;100.00
80585;BME280;70137;56.482;9.154;2024-02-28T05:52:15;101517.91;;;2.11;100.00
80585;BME280;70137;56.482;9.154;2024-02-28T05:54:41;101522.09;;;2.12;100.00
80585;BME280;70137;56.482;9.154;2024-02-28T05:57:06;101512.63;;;2.14;100.00
80585;BME280;70137;56.482;9.154;2024-02-28T05:59:31;101513.44;;;2.15;100.00
80585;BME280;70137;56.482;9.154;2024-02-28T06:01:57;101524.41;;;2.17;100.00
80585;BME280;70137;56.482;9.154;2024-02-28T06:04:22;101515.00;;;2.17;100.00
80585;BME280;70137;56.482;9.154;2024-02-28T06:06:47;101525.94;;;2.19;100.00
80585;BME280;70137;56.482;9.154;2024-02-28T06:09:14;101510.50;;;2.21;100.00
80585;BME280;70137;56.482;9.154;2024-02-28T06:11:40;101514.66;;;2.23;100.00
80585;BME280;70137;56.482;9.154;2024-02-28T06:14:11;101512.09;;;2.23;100.00
80585;BME280;70137;56.482;9.154;2024-02-28T06:16:36;101506.88;;;2.25;100.00
80585;BME280;70137;56.482;9.154;2024-02-28T06:19:02;101517.75;;;2.28;100.00
80585;BME280;70137;56.482;9.154;2024-02-28T06:21:27;101515.00;;;2.32;100.00
80585;BME280;70137;56.482;9.154;2024-02-28T06:23:53;101518.47;;;2.30;100.00
80585;BME280;70137;56.482;9.154;2024-02-28T06:26:18;101520.03;;;2.33;100.00
80585;BME280;70137;56.482;9.154;2024-02-28T06:28:44;101518.22;;;2.35;100.00
80585;BME280;70137;56.482;9.154;2024-02-28T06:31:15;101513.81;;;2.37;100.00
80585;BME280;70137;56.482;9.154;2024-02-28T06:33:42;101523.13;;;2.38;100.00
80585;BME280;70137;56.482;9.154;2024-02-28T06:36:08;101528.16;;;2.40;100.00
80585;BME280;70137;56.482;9.154;2024-02-28T06:38:33;101530.63;;;2.41;100.00
80585;BME280;70137;56.482;9.154;2024-02-28T06:41:02;101542.34;;;2.45;100.00
80585;BME280;70137;56.482;9.154;2024-02-28T06:43:27;101546.34;;;2.49;100.00
80585;BME280;70137;56.482;9.154;2024-02-28T06:45:53;101544.53;;;2.51;100.00
80585;BME280;70137;56.482;9.154;2024-02-28T06:48:18;101545.28;;;2.53;100.00
80585;BME280;70137;56.482;9.154;2024-02-28T06:50:43;101546.00;;;2.55;100.00
80585;BME280;70137;56.482;9.154;2024-02-28T06:53:09;101547.44;;;2.59;100.00
80585;BME280;70137;56.482;9.154;2024-02-28T06:55:34;101550.75;;;2.62;100.00
80585;BME280;70137;56.482;9.154;2024-02-28T06:57:59;101554.97;;;2.63;100.00
80585;BME280;70137;56.482;9.154;2024-02-28T07:00:25;101552.94;;;2.68;100.00
80585;BME280;70137;56.482;9.154;2024-02-28T07:02:50;101562.91;;;2.72;100.00
80585;BME280;70137;56.482;9.154;2024-02-28T07:05:15;101555.13;;;2.74;100.00
80585;BME280;70137;56.482;9.154;2024-02-28T07:07:41;101570.31;;;2.77;100.00
80585;BME280;70137;56.482;9.154;2024-02-28T07:10:07;101561.53;;;2.81;100.00
80585;BME280;70137;56.482;9.154;2024-02-28T07:12:32;101569.03;;;2.84;100.00
80585;BME280;70137;56.482;9.154;2024-02-28T07:14:58;101568.81;;;2.87;100.00
80585;BME280;70137;56.482;9.154;2024-02-28T07:17:23;101572.88;;;2.91;100.00
80585;BME280;70137;56.482;9.154;2024-02-28T07:19:49;101574.31;;;2.95;100.00
80585;BME280;70137;56.482;9.154;2024-02-28T07:22:14;101577.59;;;2.97;100.00
80585;BME280;70137;56.482;9.154;2024-02-28T07:24:40;101583.38;;;3.01;100.00
80585;BME280;70137;56.482;9.154;2024-02-28T07:27:06;101587.28;;;3.06;100.00
80585;BME280;70137;56.482;9.154;2024-02-28T07:29:31;101578.50;;;3.10;100.00
80585;BME280;70137;56.482;9.154;2024-02-28T07:31:57;101577.38;;;3.14;100.00
80585;BME280;70137;56.482;9.154;2024-02-28T07:34:22;101585.63;;;3.20;100.00
80585;BME280;70137;56.482;9.154;2024-02-28T07:36:47;101580.22;;;3.24;100.00
80585;BME280;70137;56.482;9.154;2024-02-28T07:39:13;101580.81;;;3.28;100.00
80585;BME280;70137;56.482;9.154;2024-02-28T07:41:41;101583.22;;;3.31;100.00
80585;BME280;70137;56.482;9.154;2024-02-28T07:44:07;101595.72;;;3.35;100.00
80585;BME280;70137;56.482;9.154;2024-02-28T07:46:34;101591.31;;;3.37;100.00
80585;BME280;70137;56.482;9.154;2024-02-28T07:49:00;101598.94;;;3.39;100.00
80585;BME280;70137;56.482;9.154;2024-02-28T07:51:26;101596.09;;;3.43;100.00
80585;BME280;70137;56.482;9.154;2024-02-28T07:53:51;101600.84;;;3.50;100.00
80585;BME280;70137;56.482;9.154;2024-02-28T07:56:17;101597.16;;;3.54;100.00
80585;BME280;70137;56.482;9.154;2024-02-28T07:58:44;101611.34;;;3.59;100.00
80585;BME280;70137;56.482;9.154;2024-02-28T08:01:10;101607.66;;;3.63;100.00
80585;BME280;70137;56.482;9.154;2024-02-28T08:03:35;101601.41;;;3.67;100.00
80585;BME280;70137;56.482;9.154;2024-02-28T08:06:01;101598.44;;;3.73;100.00
80585;BME280;70137;56.482;9.154;2024-02-28T08:08:26;101596.44;;;3.79;100.00
80585;BME280;70137;56.482;9.154;2024-02-28T08:10:52;101610.69;;;3.83;100.00
80585;BME280;70137;56.482;9.154;2024-02-28T08:13:18;101612.06;;;3.88;100.00
80585;BME280;70137;56.482;9.154;2024-02-28T08:15:44;101615.13;;;3.93;100.00
80585;BME280;70137;56.482;9.154;2024-02-28T08:18:09;101619.97;;;3.98;100.00
80585;BME280;70137;56.482;9.154;2024-02-28T08:20:37;101623.06;;;4.03;100.00
80585;BME280;70137;56.482;9.154;2024-02-28T08:23:03;101621.75;;;4.10;100.00
80585;BME280;70137;56.482;9.154;2024-02-28T08:25:29;101625.66;;;4.16;100.00
80585;BME280;70137;56.482;9.154;2024-02-28T08:27:54;101626.16;;;4.21;100.00
80585;BME280;70137;56.482;9.154;2024-02-28T08:30:19;101634.47;;;4.24;100.00
80585;BME280;70137;56.482;9.154;2024-02-28T08:32:45;101642.50;;;4.32;100.00
80585;BME280;70137;56.482;9.154;2024-02-28T08:35:10;101637.91;;;4.38;100.00
80585;BME280;70137;56.482;9.154;2024-02-28T08:37:38;101635.94;;;4.41;100.00
80585;BME280;70137;56.482;9.154;2024-02-28T08:40:04;101638.13;;;4.47;100.00
80585;BME280;70137;56.482;9.154;2024-02-28T08:42:30;101646.97;;;4.56;100.00
80585;BME280;70137;56.482;9.154;2024-02-28T08:44:57;101637.19;;;4.61;100.00
80585;BME280;70137;56.482;9.154;2024-02-28T08:47:25;101644.50;;;4.67;100.00
80585;BME280;70137;56.482;9.154;2024-02-28T08:49:53;101648.38;;;4.73;100.00
80585;BME280;70137;56.482;9.154;2024-02-28T08:52:22;101647.38;;;4.75;100.00
80585;BME280;70137;56.482;9.154;2024-02-28T08:54:48;101650.44;;;4.80;100.00
80585;BME280;70137;56.482;9.154;2024-02-28T08:57:14;101651.69;;;4.87;100.00
80585;BME280;70137;56.482;9.154;2024-02-28T08:59:39;101655.50;;;4.95;100.00
80585;BME280;70137;56.482;9.154;2024-02-28T09:02:08;101646.81;;;5.08;100.00
80585;BME280;70137;56.482;9.154;2024-02-28T09:04:34;101652.28;;;5.16;100.00
80585;BME280;70137;56.482;9.154;2024-02-28T09:06:59;101661.22;;;5.24;100.00
80585;BME280;70137;56.482;9.154;2024-02-28T09:09:25;101662.31;;;5.32;100.00
80585;BME280;70137;56.482;9.154;2024-02-28T09:11:50;101659.31;;;5.38;100.00
80585;BME280;70137;56.482;9.154;2024-02-28T09:14:15;101667.81;;;5.52;100.00
80585;BME280;70137;56.482;9.154;2024-02-28T09:16:41;101668.81;;;5.62;100.00
80585;BME280;70137;56.482;9.154;2024-02-28T09:19:06;101666.09;;;5.76;100.00
80585;BME280;70137;56.482;9.154;2024-02-28T09:21:32;101664.94;;;5.80;100.00
80585;BME280;70137;56.482;9.154;2024-02-28T09:23:57;101665.13;;;5.90;100.00
80585;BME280;70137;56.482;9.154;2024-02-28T09:26:23;101671.47;;;5.97;100.00
80585;BME280;70137;56.482;9.154;2024-02-28T09:28:48;101659.22;;;6.00;100.00
80585;BME280;70137;56.482;9.154;2024-02-28T09:31:13;101658.09;;;6.16;100.00
80585;BME280;70137;56.482;9.154;2024-02-28T09:33:40;101661.63;;;6.26;100.00
80585;BME280;70137;56.482;9.154;2024-02-28T09:36:06;101655.38;;;6.41;100.00
80585;BME280;70137;56.482;9.154;2024-02-28T09:38:31;101652.44;;;6.46;100.00
80585;BME280;70137;56.482;9.154;2024-02-28T09:40:58;101659.47;;;6.44;100.00
80585;BME280;70137;56.482;9.154;2024-02-28T09:43:31;101655.94;;;6.45;100.00
80585;BME280;70137;56.482;9.154;2024-02-28T09:46:03;101659.13;;;6.48;100.00
80585;BME280;70137;56.482;9.154;2024-02-28T09:48:29;101661.22;;;6.43;100.00
80585;BME280;70137;56.482;9.154;2024-02-28T09:50:56;101650.47;;;6.49;100.00
80585;BME280;70137;56.482;9.154;2024-02-28T09:53:22;101653.06;;;6.60;100.00
80585;BME280;70137;56.482;9.154;2024-02-28T09:55:52;101659.63;;;6.65;100.00
80585;BME280;70137;56.482;9.154;2024-02-28T09:58:18;101655.19;;;6.78;100.00
80585;BME280;70137;56.482;9.154;2024-02-28T10:00:46;101645.13;;;6.97;100.00
80585;BME280;70137;56.482;9.154;2024-02-28T10:03:14;101654.88;;;7.05;100.00
80585;BME280;70137;56.482;9.154;2024-02-28T10:05:42;101655.19;;;7.00;100.00
80585;BME280;70137;56.482;9.154;2024-02-28T10:08:07;101657.78;;;7.00;100.00
80585;BME280;70137;56.482;9.154;2024-02-28T10:10:37;101647.13;;;7.05;100.00
80585;BME280;70137;56.482;9.154;2024-02-28T10:13:03;101647.81;;;7.07;100.00
80585;BME280;70137;56.482;9.154;2024-02-28T10:15:30;101644.31;;;7.08;100.00
80585;BME280;70137;56.482;9.154;2024-02-28T10:17:55;101651.91;;;7.21;100.00
80585;BME280;70137;56.482;9.154;2024-02-28T10:20:21;101657.66;;;7.35;100.00
80585;BME280;70137;56.482;9.154;2024-02-28T10:22:48;101665.84;;;7.40;99.05
80585;BME280;70137;56.482;9.154;2024-02-28T10:25:13;101659.28;;;7.36;98.03
80585;BME280;70137;56.482;9.154;2024-02-28T10:27:39;101657.53;;;7.26;98.08
80585;BME280;70137;56.482;9.154;2024-02-28T10:30:05;101650.28;;;7.20;97.52
80585;BME280;70137;56.482;9.154;2024-02-28T10:32:34;101655.19;;;7.34;99.02
80585;BME280;70137;56.482;9.154;2024-02-28T10:35:01;101651.28;;;7.51;97.49
80585;BME280;70137;56.482;9.154;2024-02-28T10:37:28;101659.25;;;7.47;96.25
80585;BME280;70137;56.482;9.154;2024-02-28T10:39:57;101658.16;;;7.61;96.11
80585;BME280;70137;56.482;9.154;2024-02-28T10:42:22;101671.75;;;7.74;95.06
80585;BME280;70137;56.482;9.154;2024-02-28T10:44:52;101662.25;;;7.75;94.08
80585;BME280;70137;56.482;9.154;2024-02-28T10:47:18;101664.97;;;7.62;93.15
80585;BME280;70137;56.482;9.154;2024-02-28T10:49:43;101674.84;;;7.57;93.37
80585;BME280;70137;56.482;9.154;2024-02-28T10:52:11;101670.34;;;7.70;94.19
80585;BME280;70137;56.482;9.154;2024-02-28T10:54:39;101671.34;;;7.90;94.55
80585;BME280;70137;56.482;9.154;2024-02-28T10:57:07;101673.09;;;7.90;93.83
80585;BME280;70137;56.482;9.154;2024-02-28T10:59:35;101677.53;;;7.99;93.60
80585;BME280;70137;56.482;9.154;2024-02-28T11:02:02;101678.88;;;7.82;91.60
80585;BME280;70137;56.482;9.154;2024-02-28T11:04:29;101674.09;;;7.78;91.69
80585;BME280;70137;56.482;9.154;2024-02-28T11:06:56;101679.97;;;7.68;91.38
80585;BME280;70137;56.482;9.154;2024-02-28T11:09:22;101673.78;;;7.60;92.68
80585;BME280;70137;56.482;9.154;2024-02-28T11:11:49;101676.94;;;7.63;91.75
80585;BME280;70137;56.482;9.154;2024-02-28T11:14:16;101677.13;;;7.71;92.19
80585;BME280;70137;56.482;9.154;2024-02-28T11:16:41;101672.09;;;7.70;92.46
80585;BME280;70137;56.482;9.154;2024-02-28T11:19:19;101677.63;;;7.65;91.69
80585;BME280;70137;56.482;9.154;2024-02-28T11:21:46;101675.78;;;7.56;89.99
80585;BME280;70137;56.482;9.154;2024-02-28T11:24:16;101671.59;;;7.44;90.86
80585;BME280;70137;56.482;9.154;2024-02-28T11:26:42;101675.09;;;7.43;90.61
80585;BME280;70137;56.482;9.154;2024-02-28T11:29:08;101675.56;;;7.48;92.15
80585;BME280;70137;56.482;9.154;2024-02-28T11:31:33;101676.34;;;7.60;92.79
80585;BME280;70137;56.482;9.154;2024-02-28T11:33:58;101683.38;;;7.69;92.70
80585;BME280;70137;56.482;9.154;2024-02-28T11:36:24;101681.22;;;7.85;91.43
80585;BME280;70137;56.482;9.154;2024-02-28T11:38:50;101675.75;;;7.99;91.15
80585;BME280;70137;56.482;9.154;2024-02-28T11:41:25;101681.38;;;8.37;91.61
80585;BME280;70137;56.482;9.154;2024-02-28T11:43:51;101673.81;;;8.45;89.17
80585;BME280;70137;56.482;9.154;2024-02-28T11:46:16;101683.13;;;8.57;89.20
80585;BME280;70137;56.482;9.154;2024-02-28T11:48:43;101683.31;;;8.86;87.74
80585;BME280;70137;56.482;9.154;2024-02-28T11:51:08;101678.22;;;9.05;85.12
80585;BME280;70137;56.482;9.154;2024-02-28T11:53:33;101675.25;;;9.10;80.80
80585;BME280;70137;56.482;9.154;2024-02-28T11:55:59;101677.75;;;9.21;78.23
80585;BME280;70137;56.482;9.154;2024-02-28T11:58:24;101677.16;;;9.08;78.58
80585;BME280;70137;56.482;9.154;2024-02-28T12:00:51;101677.56;;;8.82;78.63
80585;BME280;70137;56.482;9.154;2024-02-28T12:03:24;101675.50;;;8.76;79.61
80585;BME280;70137;56.482;9.154;2024-02-28T12:05:52;101665.91;;;8.67;79.56
80585;BME280;70137;56.482;9.154;2024-02-28T12:08:18;101665.72;;;8.49;78.88
80585;BME280;70137;56.482;9.154;2024-02-28T12:10:44;101663.06;;;8.40;80.43
80585;BME280;70137;56.482;9.154;2024-02-28T12:13:10;101665.66;;;8.40;81.57
80585;BME280;70137;56.482;9.154;2024-02-28T12:15:36;101666.00;;;8.35;83.49
80585;BME280;70137;56.482;9.154;2024-02-28T12:18:07;101672.69;;;8.38;83.79
80585;BME280;70137;56.482;9.154;2024-02-28T12:20:34;101665.38;;;8.43;82.95
80585;BME280;70137;56.482;9.154;2024-02-28T12:22:59;101653.47;;;8.51;82.42
80585;BME280;70137;56.482;9.154;2024-02-28T12:25:25;101661.47;;;8.48;82.39
80585;BME280;70137;56.482;9.154;2024-02-28T12:27:50;101666.25;;;8.53;79.47
80585;BME280;70137;56.482;9.154;2024-02-28T12:30:15;101663.50;;;8.45;80.03
80585;BME280;70137;56.482;9.154;2024-02-28T12:32:41;101665.88;;;8.37;80.24
80585;BME280;70137;56.482;9.154;2024-02-28T12:35:06;101670.81;;;8.28;80.21
80585;BME280;70137;56.482;9.154;2024-02-28T12:37:32;101664.53;;;8.21;81.44
80585;BME280;70137;56.482;9.154;2024-02-28T12:39:57;101660.31;;;8.20;79.86
80585;BME280;70137;56.482;9.154;2024-02-28T12:42:23;101667.59;;;8.15;80.25
80585;BME280;70137;56.482;9.154;2024-02-28T12:44:48;101668.81;;;8.11;79.79
80585;BME280;70137;56.482;9.154;2024-02-28T12:47:14;101666.47;;;8.08;80.31